sensor_id;sensor_type;location;lat;lon;timestamp;P1;durP1;ratioP1;P2;durP2;ratioP2
16735;SDS011;17990;49.548;9.730;2022-08-18T00:01:06;5.70;;;3.70;;
16735;SDS011;17990;49.548;9.730;2022-08-18T00:03:36;9.13;;;4.10;;
16735;SDS011;17990;49.548;9.730;2022-08-18T00:06:05;7.63;;;3.80;;
16735;SDS011;17990;49.548;9.730;2022-08-18T00:08:32;7.60;;;3.87;;
16735;SDS011;17990;49.548;9.730;2022-08-18T00:10:59;6.77;;;4.43;;
16735;SDS011;17990;49.548;9.730;2022-08-18T00:13:26;9.30;;;4.53;;
16735;SDS011;17990;49.548;9.730;2022-08-18T00:15:52;9.30;;;4.63;;
16735;SDS011;17990;49.548;9.730;2022-08-18T00:18:19;6.63;;;4.13;;
16735;SDS011;17990;49.548;9.730;2022-08-18T00:20:47;5.27;;;4.37;;
16735;SDS011;17990;49.548;9.730;2022-08-18T00:23:14;7.93;;;4.37;;
16735;SDS011;17990;49.548;9.730;2022-08-18T00:25:41;13.00;;;4.90;;
16735;SDS011;17990;49.548;9.730;2022-08-18T00:28:09;7.93;;;5.17;;
16735;SDS011;17990;49.548;9.730;2022-08-18T00:30:36;5.63;;;4.50;;
16735;SDS011;17990;49.548;9.730;2022-08-18T00:33:03;6.10;;;4.43;;
16735;SDS011;17990;49.548;9.730;2022-08-18T00:35:31;5.50;;;4.90;;
16735;SDS011;17990;49.548;9.730;2022-08-18T00:38:00;7.50;;;5.27;;
16735;SDS011;17990;49.548;9.730;2022-08-18T00:40:35;7.30;;;5.47;;
16735;SDS011;17990;49.548;9.730;2022-08-18T00:43:05;5.40;;;4.90;;
16735;SDS011;17990;49.548;9.730;2022-08-18T00:45:37;6.47;;;5.37;;
16735;SDS011;17990;49.548;9.730;2022-08-18T00:48:06;9.47;;;5.40;;
16735;SDS011;17990;49.548;9.730;2022-08-18T00:50:36;10.77;;;5.23;;
16735;SDS011;17990;49.548;9.730;2022-08-18T00:53:10;8.33;;;5.27;;
16735;SDS011;17990;49.548;9.730;2022-08-18T00:55:40;6.97;;;5.13;;
16735;SDS011;17990;49.548;9.730;2022-08-18T00:58:11;5.93;;;5.13;;
16735;SDS011;17990;49.548;9.730;2022-08-18T01:00:41;5.53;;;4.90;;
16735;SDS011;17990;49.548;9.730;2022-08-18T01:03:11;8.57;;;5.23;;
16735;SDS011;17990;49.548;9.730;2022-08-18T01:05:41;8.23;;;5.47;;
16735;SDS011;17990;49.548;9.730;2022-08-18T01:08:14;6.77;;;5.00;;
16735;SDS011;17990;49.548;9.730;2022-08-18T01:10:42;7.13;;;5.00;;
16735;SDS011;17990;49.548;9.730;2022-08-18T01:13:10;6.23;;;5.13;;
16735;SDS011;17990;49.548;9.730;2022-08-18T01:15:37;8.20;;;4.97;;
16735;SDS011;17990;49.548;9.730;2022-08-18T01:18:05;6.83;;;4.70;;
16735;SDS011;17990;49.548;9.730;2022-08-18T01:20:55;6.07;;;4.80;;
16735;SDS011;17990;49.548;9.730;2022-08-18T01:23:41;7.67;;;4.70;;
16735;SDS011;17990;49.548;9.730;2022-08-18T01:26:08;8.73;;;4.57;;
16735;SDS011;17990;49.548;9.730;2022-08-18T01:28:36;8.20;;;4.77;;
16735;SDS011;17990;49.548;9.730;2022-08-18T01:31:06;4.90;;;4.37;;
16735;SDS011;17990;49.548;9.730;2022-08-18T01:33:35;5.77;;;4.63;;
16735;SDS011;17990;49.548;9.730;2022-08-18T01:36:05;4.93;;;4.43;;
16735;SDS011;17990;49.548;9.730;2022-08-18T01:38:41;7.27;;;4.20;;
16735;SDS011;17990;49.548;9.730;2022-08-18T01:41:08;5.73;;;5.03;;
16735;SDS011;17990;49.548;9.730;2022-08-18T01:43:36;4.57;;;4.17;;
16735;SDS011;17990;49.548;9.730;2022-08-18T01:46:03;7.37;;;4.50;;
16735;SDS011;17990;49.548;9.730;2022-08-18T01:48:32;8.50;;;4.50;;
16735;SDS011;17990;49.548;9.730;2022-08-18T01:50:59;5.83;;;4.70;;
16735;SDS011;17990;49.548;9.730;2022-08-18T01:53:26;5.47;;;4.97;;
16735;SDS011;17990;49.548;9.730;2022-08-18T01:55:54;5.07;;;4.10;;
16735;SDS011;17990;49.548;9.730;2022-08-18T01:58:21;6.20;;;4.47;;
16735;SDS011;17990;49.548;9.730;2022-08-18T02:00:51;5.33;;;4.50;;
16735;SDS011;17990;49.548;9.730;2022-08-18T02:03:18;6.00;;;4.27;;
16735;SDS011;17990;49.548;9.730;2022-08-18T02:05:46;5.50;;;4.70;;
16735;SDS011;17990;49.548;9.730;2022-08-18T02:08:15;5.60;;;4.90;;
16735;SDS011;17990;49.548;9.730;2022-08-18T02:10:42;7.47;;;4.37;;
16735;SDS011;17990;49.548;9.730;2022-08-18T02:13:10;5.53;;;4.97;;
16735;SDS011;17990;49.548;9.730;2022-08-18T02:15:37;6.43;;;4.37;;
16735;SDS011;17990;49.548;9.730;2022-08-18T02:18:04;7.70;;;4.60;;
16735;SDS011;17990;49.548;9.730;2022-08-18T02:20:30;5.27;;;4.50;;
16735;SDS011;17990;49.548;9.730;2022-08-18T02:22:57;5.27;;;4.77;;
16735;SDS011;17990;49.548;9.730;2022-08-18T02:25:24;6.13;;;5.00;;
16735;SDS011;17990;49.548;9.730;2022-08-18T02:27:51;7.57;;;4.83;;
16735;SDS011;17990;49.548;9.730;2022-08-18T02:30:19;8.57;;;4.90;;
16735;SDS011;17990;49.548;9.730;2022-08-18T02:32:46;5.77;;;4.10;;
16735;SDS011;17990;49.548;9.730;2022-08-18T02:35:13;4.83;;;4.20;;
16735;SDS011;17990;49.548;9.730;2022-08-18T02:37:40;7.90;;;4.67;;
16735;SDS011;17990;49.548;9.730;2022-08-18T02:40:11;5.93;;;4.57;;
16735;SDS011;17990;49.548;9.730;2022-08-18T02:42:39;4.77;;;4.37;;
16735;SDS011;17990;49.548;9.730;2022-08-18T02:45:06;5.30;;;4.63;;
16735;SDS011;17990;49.548;9.730;2022-08-18T02:47:35;7.47;;;4.43;;
16735;SDS011;17990;49.548;9.730;2022-08-18T02:50:01;5.90;;;4.50;;
16735;SDS011;17990;49.548;9.730;2022-08-18T02:52:28;5.07;;;4.57;;
16735;SDS011;17990;49.548;9.730;2022-08-18T02:54:56;5.27;;;4.70;;
16735;SDS011;17990;49.548;9.730;2022-08-18T02:57:24;5.33;;;4.70;;
16735;SDS011;17990;49.548;9.730;2022-08-18T02:59:51;5.57;;;4.80;;
16735;SDS011;17990;49.548;9.730;2022-08-18T03:02:18;5.27;;;4.50;;
16735;SDS011;17990;49.548;9.730;2022-08-18T03:04:46;7.40;;;4.90;;
16735;SDS011;17990;49.548;9.730;2022-08-18T03:07:13;5.07;;;4.57;;
16735;SDS011;17990;49.548;9.730;2022-08-18T03:09:40;8.40;;;4.97;;
16735;SDS011;17990;49.548;9.730;2022-08-18T03:12:07;5.20;;;4.70;;
16735;SDS011;17990;49.548;9.730;2022-08-18T03:14:34;6.67;;;4.13;;
16735;SDS011;17990;49.548;9.730;2022-08-18T03:17:04;6.63;;;4.30;;
16735;SDS011;17990;49.548;9.730;2022-08-18T03:19:33;4.87;;;4.10;;
16735;SDS011;17990;49.548;9.730;2022-08-18T03:22:01;6.47;;;4.53;;
16735;SDS011;17990;49.548;9.730;2022-08-18T03:24:30;5.73;;;3.90;;
16735;SDS011;17990;49.548;9.730;2022-08-18T03:26:58;4.67;;;4.27;;
16735;SDS011;17990;49.548;9.730;2022-08-18T03:29:25;4.50;;;4.07;;
16735;SDS011;17990;49.548;9.730;2022-08-18T03:31:52;4.43;;;4.03;;
16735;SDS011;17990;49.548;9.730;2022-08-18T03:34:19;5.33;;;4.03;;
16735;SDS011;17990;49.548;9.730;2022-08-18T03:36:47;5.50;;;4.30;;
16735;SDS011;17990;49.548;9.730;2022-08-18T03:39:17;6.50;;;4.33;;
16735;SDS011;17990;49.548;9.730;2022-08-18T03:41:47;7.07;;;4.80;;
16735;SDS011;17990;49.548;9.730;2022-08-18T03:44:17;5.90;;;4.10;;
16735;SDS011;17990;49.548;9.730;2022-08-18T03:46:44;5.93;;;4.30;;
16735;SDS011;17990;49.548;9.730;2022-08-18T03:49:11;6.93;;;4.50;;
16735;SDS011;17990;49.548;9.730;2022-08-18T03:51:40;5.83;;;4.40;;
16735;SDS011;17990;49.548;9.730;2022-08-18T03:54:10;4.83;;;4.10;;
16735;SDS011;17990;49.548;9.730;2022-08-18T03:56:41;9.03;;;5.50;;
16735;SDS011;17990;49.548;9.730;2022-08-18T03:59:09;9.57;;;5.07;;
16735;SDS011;17990;49.548;9.730;2022-08-18T04:01:40;6.53;;;5.20;;
16735;SDS011;17990;49.548;9.730;2022-08-18T04:04:08;6.63;;;4.93;;
16735;SDS011;17990;49.548;9.730;2022-08-18T04:06:39;5.90;;;4.90;;
16735;SDS011;17990;49.548;9.730;2022-08-18T04:09:09;5.43;;;4.67;;
16735;SDS011;17990;49.548;9.730;2022-08-18T04:11:38;4.97;;;4.20;;
16735;SDS011;17990;49.548;9.730;2022-08-18T04:14:08;6.90;;;4.60;;
16735;SDS011;17990;49.548;9.730;2022-08-18T04:16:35;5.73;;;4.40;;
16735;SDS011;17990;49.548;9.730;2022-08-18T04:19:02;7.53;;;4.90;;
16735;SDS011;17990;49.548;9.730;2022-08-18T04:21:30;5.93;;;5.27;;
16735;SDS011;17990;49.548;9.730;2022-08-18T04:23:57;9.23;;;4.80;;
16735;SDS011;17990;49.548;9.730;2022-08-18T04:26:26;7.77;;;4.80;;
16735;SDS011;17990;49.548;9.730;2022-08-18T04:28:54;8.23;;;5.07;;
16735;SDS011;17990;49.548;9.730;2022-08-18T04:31:21;6.07;;;5.23;;
16735;SDS011;17990;49.548;9.730;2022-08-18T04:33:50;7.17;;;4.63;;
16735;SDS011;17990;49.548;9.730;2022-08-18T04:36:17;12.33;;;4.90;;
16735;SDS011;17990;49.548;9.730;2022-08-18T04:38:43;9.20;;;6.00;;
16735;SDS011;17990;49.548;9.730;2022-08-18T04:41:11;34.63;;;17.23;;
16735;SDS011;17990;49.548;9.730;2022-08-18T04:43:39;19.07;;;10.33;;
16735;SDS011;17990;49.548;9.730;2022-08-18T04:46:07;12.77;;;8.07;;
16735;SDS011;17990;49.548;9.730;2022-08-18T04:48:36;10.50;;;6.30;;
16735;SDS011;17990;49.548;9.730;2022-08-18T04:51:05;8.13;;;6.43;;
16735;SDS011;17990;49.548;9.730;2022-08-18T04:53:34;8.57;;;5.00;;
16735;SDS011;17990;49.548;9.730;2022-08-18T04:56:12;6.30;;;5.20;;
16735;SDS011;17990;49.548;9.730;2022-08-18T04:58:41;6.07;;;5.47;;
16735;SDS011;17990;49.548;9.730;2022-08-18T05:01:10;6.70;;;5.60;;
16735;SDS011;17990;49.548;9.730;2022-08-18T05:03:36;5.80;;;5.07;;
16735;SDS011;17990;49.548;9.730;2022-08-18T05:06:03;5.20;;;4.70;;
16735;SDS011;17990;49.548;9.730;2022-08-18T05:08:31;5.90;;;5.13;;
16735;SDS011;17990;49.548;9.730;2022-08-18T05:10:58;6.67;;;5.27;;
16735;SDS011;17990;49.548;9.730;2022-08-18T05:13:25;8.30;;;4.87;;
16735;SDS011;17990;49.548;9.730;2022-08-18T05:15:52;7.13;;;5.37;;
16735;SDS011;17990;49.548;9.730;2022-08-18T05:18:21;7.23;;;4.60;;
16735;SDS011;17990;49.548;9.730;2022-08-18T05:20:49;7.17;;;5.20;;
16735;SDS011;17990;49.548;9.730;2022-08-18T05:23:16;6.27;;;5.20;;
16735;SDS011;17990;49.548;9.730;2022-08-18T05:25:43;5.13;;;4.63;;
16735;SDS011;17990;49.548;9.730;2022-08-18T05:28:10;5.33;;;4.83;;
16735;SDS011;17990;49.548;9.730;2022-08-18T05:30:38;5.97;;;4.93;;
16735;SDS011;17990;49.548;9.730;2022-08-18T05:33:05;5.37;;;4.87;;
16735;SDS011;17990;49.548;9.730;2022-08-18T05:35:36;9.00;;;5.60;;
16735;SDS011;17990;49.548;9.730;2022-08-18T05:38:21;5.90;;;5.27;;
16735;SDS011;17990;49.548;9.730;2022-08-18T05:41:00;6.00;;;5.37;;
16735;SDS011;17990;49.548;9.730;2022-08-18T05:43:34;6.80;;;5.03;;
16735;SDS011;17990;49.548;9.730;2022-08-18T05:46:02;5.93;;;4.93;;
16735;SDS011;17990;49.548;9.730;2022-08-18T05:48:31;6.50;;;4.97;;
16735;SDS011;17990;49.548;9.730;2022-08-18T05:51:02;7.03;;;5.13;;
16735;SDS011;17990;49.548;9.730;2022-08-18T05:53:37;6.57;;;5.03;;
16735;SDS011;17990;49.548;9.730;2022-08-18T05:56:23;7.07;;;4.93;;
16735;SDS011;17990;49.548;9.730;2022-08-18T05:59:13;9.03;;;4.37;;
16735;SDS011;17990;49.548;9.730;2022-08-18T06:01:45;6.30;;;5.20;;
16735;SDS011;17990;49.548;9.730;2022-08-18T06:04:21;9.23;;;5.27;;
16735;SDS011;17990;49.548;9.730;2022-08-18T06:06:56;6.00;;;4.80;;
16735;SDS011;17990;49.548;9.730;2022-08-18T06:09:31;5.87;;;4.67;;
16735;SDS011;17990;49.548;9.730;2022-08-18T06:12:08;5.97;;;5.20;;
16735;SDS011;17990;49.548;9.730;2022-08-18T06:14:44;5.87;;;4.43;;
16735;SDS011;17990;49.548;9.730;2022-08-18T06:17:14;4.80;;;4.07;;
16735;SDS011;17990;49.548;9.730;2022-08-18T06:19:53;6.93;;;3.92;;
16735;SDS011;17990;49.548;9.730;2022-08-18T06:22:29;4.45;;;3.70;;
16735;SDS011;17990;49.548;9.730;2022-08-18T06:25:05;4.07;;;3.53;;
16735;SDS011;17990;49.548;9.730;2022-08-18T06:27:37;6.95;;;3.40;;
16735;SDS011;17990;49.548;9.730;2022-08-18T06:30:11;5.97;;;3.30;;
16735;SDS011;17990;49.548;9.730;2022-08-18T06:32:50;4.82;;;3.67;;
16735;SDS011;17990;49.548;9.730;2022-08-18T06:35:28;5.57;;;3.40;;
16735;SDS011;17990;49.548;9.730;2022-08-18T06:38:04;3.72;;;3.25;;
16735;SDS011;17990;49.548;9.730;2022-08-18T06:41:02;6.28;;;3.65;;
16735;SDS011;17990;49.548;9.730;2022-08-18T06:43:34;5.43;;;3.38;;
16735;SDS011;17990;49.548;9.730;2022-08-18T06:46:11;4.47;;;3.92;;
16735;SDS011;17990;49.548;9.730;2022-08-18T06:48:43;5.82;;;4.15;;
16735;SDS011;17990;49.548;9.730;2022-08-18T06:51:20;5.40;;;4.47;;
16735;SDS011;17990;49.548;9.730;2022-08-18T06:53:51;5.40;;;4.22;;
16735;SDS011;17990;49.548;9.730;2022-08-18T06:56:21;4.95;;;4.25;;
16735;SDS011;17990;49.548;9.730;2022-08-18T06:58:50;5.00;;;4.38;;
16735;SDS011;17990;49.548;9.730;2022-08-18T07:01:19;6.05;;;4.60;;
16735;SDS011;17990;49.548;9.730;2022-08-18T07:03:48;6.07;;;4.45;;
16735;SDS011;17990;49.548;9.730;2022-08-18T07:06:29;5.22;;;4.47;;
16735;SDS011;17990;49.548;9.730;2022-08-18T07:11:59;6.55;;;4.22;;
16735;SDS011;17990;49.548;9.730;2022-08-18T07:14:29;6.82;;;4.57;;
16735;SDS011;17990;49.548;9.730;2022-08-18T07:17:06;5.80;;;4.80;;
16735;SDS011;17990;49.548;9.730;2022-08-18T07:19:34;9.65;;;4.88;;
16735;SDS011;17990;49.548;9.730;2022-08-18T07:22:03;6.13;;;4.60;;
16735;SDS011;17990;49.548;9.730;2022-08-18T07:24:33;5.97;;;5.05;;
16735;SDS011;17990;49.548;9.730;2022-08-18T07:27:05;8.32;;;5.30;;
16735;SDS011;17990;49.548;9.730;2022-08-18T07:29:34;5.47;;;4.60;;
16735;SDS011;17990;49.548;9.730;2022-08-18T07:32:04;5.35;;;4.85;;
16735;SDS011;17990;49.548;9.730;2022-08-18T07:34:37;4.90;;;4.38;;
16735;SDS011;17990;49.548;9.730;2022-08-18T07:37:08;6.25;;;4.90;;
16735;SDS011;17990;49.548;9.730;2022-08-18T07:39:44;7.47;;;4.43;;
16735;SDS011;17990;49.548;9.730;2022-08-18T07:42:16;5.68;;;4.80;;
16735;SDS011;17990;49.548;9.730;2022-08-18T07:44:52;6.82;;;4.57;;
16735;SDS011;17990;49.548;9.730;2022-08-18T07:47:24;6.50;;;4.85;;
16735;SDS011;17990;49.548;9.730;2022-08-18T07:49:56;6.78;;;4.95;;
16735;SDS011;17990;49.548;9.730;2022-08-18T07:52:24;6.95;;;4.72;;
16735;SDS011;17990;49.548;9.730;2022-08-18T07:55:00;7.78;;;5.20;;
16735;SDS011;17990;49.548;9.730;2022-08-18T07:57:35;7.22;;;4.88;;
16735;SDS011;17990;49.548;9.730;2022-08-18T08:00:10;7.60;;;4.38;;
16735;SDS011;17990;49.548;9.730;2022-08-18T08:02:46;9.10;;;5.43;;
16735;SDS011;17990;49.548;9.730;2022-08-18T08:05:24;10.02;;;5.53;;
16735;SDS011;17990;49.548;9.730;2022-08-18T08:08:05;8.07;;;5.07;;
16735;SDS011;17990;49.548;9.730;2022-08-18T08:10:54;5.93;;;4.80;;
16735;SDS011;17990;49.548;9.730;2022-08-18T08:13:42;6.82;;;5.03;;
16735;SDS011;17990;49.548;9.730;2022-08-18T08:16:19;6.00;;;5.22;;
16735;SDS011;17990;49.548;9.730;2022-08-18T08:18:54;6.88;;;5.60;;
16735;SDS011;17990;49.548;9.730;2022-08-18T08:21:30;8.63;;;6.20;;
16735;SDS011;17990;49.548;9.730;2022-08-18T08:24:04;7.45;;;5.82;;
16735;SDS011;17990;49.548;9.730;2022-08-18T08:26:43;7.43;;;6.70;;
16735;SDS011;17990;49.548;9.730;2022-08-18T08:29:23;8.05;;;5.85;;
16735;SDS011;17990;49.548;9.730;2022-08-18T08:31:59;9.85;;;6.47;;
16735;SDS011;17990;49.548;9.730;2022-08-18T08:34:30;12.35;;;5.97;;
16735;SDS011;17990;49.548;9.730;2022-08-18T08:37:04;7.60;;;5.93;;
16735;SDS011;17990;49.548;9.730;2022-08-18T08:39:35;7.78;;;5.70;;
16735;SDS011;17990;49.548;9.730;2022-08-18T08:42:08;10.75;;;6.32;;
16735;SDS011;17990;49.548;9.730;2022-08-18T08:44:40;7.57;;;6.00;;
16735;SDS011;17990;49.548;9.730;2022-08-18T08:47:13;8.50;;;5.80;;
16735;SDS011;17990;49.548;9.730;2022-08-18T08:49:45;8.05;;;6.40;;
16735;SDS011;17990;49.548;9.730;2022-08-18T08:52:15;9.52;;;6.25;;
16735;SDS011;17990;49.548;9.730;2022-08-18T08:54:49;12.98;;;6.90;;
16735;SDS011;17990;49.548;9.730;2022-08-18T08:57:21;17.02;;;7.70;;
16735;SDS011;17990;49.548;9.730;2022-08-18T08:59:56;7.70;;;7.00;;
16735;SDS011;17990;49.548;9.730;2022-08-18T09:05:48;8.48;;;7.10;;
16735;SDS011;17990;49.548;9.730;2022-08-18T09:08:42;9.57;;;7.13;;
16735;SDS011;17990;49.548;9.730;2022-08-18T09:11:37;8.05;;;7.25;;
16735;SDS011;17990;49.548;9.730;2022-08-18T09:14:35;7.35;;;6.65;;
16735;SDS011;17990;49.548;9.730;2022-08-18T09:23:22;11.50;;;6.57;;
16735;SDS011;17990;49.548;9.730;2022-08-18T09:25:53;11.38;;;6.97;;
16735;SDS011;17990;49.548;9.730;2022-08-18T09:31:18;12.27;;;7.38;;
16735;SDS011;17990;49.548;9.730;2022-08-18T09:33:51;8.52;;;6.90;;
16735;SDS011;17990;49.548;9.730;2022-08-18T09:36:32;12.10;;;7.78;;
16735;SDS011;17990;49.548;9.730;2022-08-18T09:39:20;9.45;;;7.55;;
16735;SDS011;17990;49.548;9.730;2022-08-18T09:42:11;9.18;;;7.30;;
16735;SDS011;17990;49.548;9.730;2022-08-18T09:44:57;9.15;;;7.40;;
16735;SDS011;17990;49.548;9.730;2022-08-18T09:59:55;8.20;;;7.40;;
16735;SDS011;17990;49.548;9.730;2022-08-18T10:05:56;10.38;;;7.93;;
16735;SDS011;17990;49.548;9.730;2022-08-18T10:11:57;11.93;;;7.72;;
16735;SDS011;17990;49.548;9.730;2022-08-18T10:17:42;9.40;;;6.53;;
16735;SDS011;17990;49.548;9.730;2022-08-18T10:20:21;8.13;;;7.18;;
16735;SDS011;17990;49.548;9.730;2022-08-18T10:22:55;7.55;;;6.57;;
16735;SDS011;17990;49.548;9.730;2022-08-18T10:25:30;10.80;;;7.65;;
16735;SDS011;17990;49.548;9.730;2022-08-18T10:28:00;8.75;;;7.10;;
16735;SDS011;17990;49.548;9.730;2022-08-18T10:30:43;10.57;;;7.18;;
16735;SDS011;17990;49.548;9.730;2022-08-18T10:36:40;7.07;;;6.38;;
16735;SDS011;17990;49.548;9.730;2022-08-18T10:39:13;8.27;;;7.00;;
16735;SDS011;17990;49.548;9.730;2022-08-18T10:41:48;8.13;;;6.68;;
16735;SDS011;17990;49.548;9.730;2022-08-18T10:44:28;7.25;;;5.68;;
16735;SDS011;17990;49.548;9.730;2022-08-18T10:46:59;7.03;;;6.32;;
16735;SDS011;17990;49.548;9.730;2022-08-18T10:49:28;9.25;;;6.53;;
16735;SDS011;17990;49.548;9.730;2022-08-18T10:52:08;6.55;;;5.85;;
16735;SDS011;17990;49.548;9.730;2022-08-18T10:55:04;10.48;;;6.18;;
16735;SDS011;17990;49.548;9.730;2022-08-18T10:57:52;7.13;;;6.10;;
16735;SDS011;17990;49.548;9.730;2022-08-18T11:00:50;10.27;;;6.35;;
16735;SDS011;17990;49.548;9.730;2022-08-18T11:03:29;7.65;;;5.75;;
16735;SDS011;17990;49.548;9.730;2022-08-18T11:06:06;6.93;;;5.45;;
16735;SDS011;17990;49.548;9.730;2022-08-18T11:08:43;7.57;;;6.43;;
16735;SDS011;17990;49.548;9.730;2022-08-18T11:11:13;9.13;;;5.95;;
16735;SDS011;17990;49.548;9.730;2022-08-18T11:13:49;9.13;;;6.18;;
16735;SDS011;17990;49.548;9.730;2022-08-18T11:16:29;7.75;;;5.53;;
16735;SDS011;17990;49.548;9.730;2022-08-18T11:19:04;6.65;;;5.93;;
16735;SDS011;17990;49.548;9.730;2022-08-18T11:21:37;6.95;;;5.60;;
16735;SDS011;17990;49.548;9.730;2022-08-18T11:24:09;6.93;;;6.22;;
16735;SDS011;17990;49.548;9.730;2022-08-18T11:26:38;8.48;;;6.80;;
16735;SDS011;17990;49.548;9.730;2022-08-18T11:29:19;7.57;;;5.78;;
16735;SDS011;17990;49.548;9.730;2022-08-18T11:31:49;8.02;;;6.20;;
16735;SDS011;17990;49.548;9.730;2022-08-18T11:34:22;6.72;;;6.03;;
16735;SDS011;17990;49.548;9.730;2022-08-18T11:36:57;10.43;;;6.10;;
16735;SDS011;17990;49.548;9.730;2022-08-18T11:39:27;7.45;;;5.68;;
16735;SDS011;17990;49.548;9.730;2022-08-18T11:41:54;9.15;;;5.47;;
16735;SDS011;17990;49.548;9.730;2022-08-18T11:44:22;6.70;;;5.90;;
16735;SDS011;17990;49.548;9.730;2022-08-18T11:46:55;11.60;;;6.03;;
16735;SDS011;17990;49.548;9.730;2022-08-18T11:49:34;6.88;;;5.50;;
16735;SDS011;17990;49.548;9.730;2022-08-18T11:52:13;12.30;;;5.97;;
16735;SDS011;17990;49.548;9.730;2022-08-18T11:54:46;7.18;;;5.90;;
16735;SDS011;17990;49.548;9.730;2022-08-18T11:57:27;6.80;;;5.38;;
16735;SDS011;17990;49.548;9.730;2022-08-18T11:59:55;6.25;;;5.38;;
16735;SDS011;17990;49.548;9.730;2022-08-18T12:02:23;6.18;;;5.57;;
16735;SDS011;17990;49.548;9.730;2022-08-18T12:04:52;9.02;;;5.50;;
16735;SDS011;17990;49.548;9.730;2022-08-18T12:07:26;6.22;;;5.07;;
16735;SDS011;17990;49.548;9.730;2022-08-18T12:10:10;6.78;;;5.18;;
16735;SDS011;17990;49.548;9.730;2022-08-18T12:12:43;6.07;;;5.50;;
16735;SDS011;17990;49.548;9.730;2022-08-18T12:15:23;6.63;;;5.15;;
16735;SDS011;17990;49.548;9.730;2022-08-18T12:17:52;7.22;;;5.35;;
16735;SDS011;17990;49.548;9.730;2022-08-18T12:20:19;5.80;;;4.95;;
16735;SDS011;17990;49.548;9.730;2022-08-18T12:22:47;5.70;;;5.13;;
16735;SDS011;17990;49.548;9.730;2022-08-18T12:25:16;5.97;;;5.47;;
16735;SDS011;17990;49.548;9.730;2022-08-18T12:27:44;6.80;;;4.95;;
16735;SDS011;17990;49.548;9.730;2022-08-18T12:30:11;7.40;;;5.03;;
16735;SDS011;17990;49.548;9.730;2022-08-18T12:32:38;5.63;;;5.03;;
16735;SDS011;17990;49.548;9.730;2022-08-18T12:35:06;7.25;;;5.25;;
16735;SDS011;17990;49.548;9.730;2022-08-18T12:37:35;8.18;;;4.88;;
16735;SDS011;17990;49.548;9.730;2022-08-18T12:40:03;5.53;;;5.03;;
16735;SDS011;17990;49.548;9.730;2022-08-18T12:42:32;5.57;;;5.05;;
16735;SDS011;17990;49.548;9.730;2022-08-18T12:44:59;7.03;;;4.50;;
16735;SDS011;17990;49.548;9.730;2022-08-18T12:47:26;6.15;;;5.55;;
16735;SDS011;17990;49.548;9.730;2022-08-18T12:49:53;8.32;;;5.45;;
16735;SDS011;17990;49.548;9.730;2022-08-18T12:52:20;5.07;;;4.57;;
16735;SDS011;17990;49.548;9.730;2022-08-18T12:54:47;4.75;;;4.30;;
16735;SDS011;17990;49.548;9.730;2022-08-18T12:57:16;5.80;;;5.15;;
16735;SDS011;17990;49.548;9.730;2022-08-18T12:59:47;5.32;;;4.82;;
16735;SDS011;17990;49.548;9.730;2022-08-18T13:02:14;5.05;;;4.60;;
16735;SDS011;17990;49.548;9.730;2022-08-18T13:04:41;5.00;;;4.15;;
16735;SDS011;17990;49.548;9.730;2022-08-18T13:07:09;5.57;;;4.43;;
16735;SDS011;17990;49.548;9.730;2022-08-18T13:09:38;9.88;;;4.95;;
16735;SDS011;17990;49.548;9.730;2022-08-18T13:12:05;5.85;;;4.68;;
16735;SDS011;17990;49.548;9.730;2022-08-18T13:14:33;5.90;;;4.47;;
16735;SDS011;17990;49.548;9.730;2022-08-18T13:17:01;5.93;;;4.90;;
16735;SDS011;17990;49.548;9.730;2022-08-18T13:19:29;6.05;;;4.57;;
16735;SDS011;17990;49.548;9.730;2022-08-18T13:21:56;4.78;;;4.30;;
16735;SDS011;17990;49.548;9.730;2022-08-18T13:24:23;5.90;;;4.43;;
16735;SDS011;17990;49.548;9.730;2022-08-18T13:26:50;5.88;;;4.78;;
16735;SDS011;17990;49.548;9.730;2022-08-18T13:29:17;5.60;;;5.10;;
16735;SDS011;17990;49.548;9.730;2022-08-18T13:31:45;7.20;;;5.20;;
16735;SDS011;17990;49.548;9.730;2022-08-18T13:34:13;5.18;;;4.68;;
16735;SDS011;17990;49.548;9.730;2022-08-18T13:36:40;6.45;;;4.75;;
16735;SDS011;17990;49.548;9.730;2022-08-18T13:39:09;8.18;;;4.95;;
16735;SDS011;17990;49.548;9.730;2022-08-18T13:41:36;6.90;;;4.63;;
16735;SDS011;17990;49.548;9.730;2022-08-18T13:44:03;7.35;;;5.07;;
16735;SDS011;17990;49.548;9.730;2022-08-18T13:46:30;6.00;;;5.13;;
16735;SDS011;17990;49.548;9.730;2022-08-18T13:48:57;6.18;;;4.85;;
16735;SDS011;17990;49.548;9.730;2022-08-18T13:51:27;4.75;;;4.35;;
16735;SDS011;17990;49.548;9.730;2022-08-18T13:53:54;6.82;;;5.05;;
16735;SDS011;17990;49.548;9.730;2022-08-18T13:56:21;6.50;;;4.90;;
16735;SDS011;17990;49.548;9.730;2022-08-18T13:58:48;5.30;;;4.80;;
16735;SDS011;17990;49.548;9.730;2022-08-18T14:01:15;8.63;;;4.95;;
16735;SDS011;17990;49.548;9.730;2022-08-18T14:03:41;7.97;;;5.07;;
16735;SDS011;17990;49.548;9.730;2022-08-18T14:06:08;5.60;;;5.03;;
16735;SDS011;17990;49.548;9.730;2022-08-18T14:08:37;7.60;;;5.35;;
16735;SDS011;17990;49.548;9.730;2022-08-18T14:11:04;7.45;;;5.50;;
16735;SDS011;17990;49.548;9.730;2022-08-18T14:13:31;5.78;;;5.00;;
16735;SDS011;17990;49.548;9.730;2022-08-18T14:15:57;7.00;;;4.65;;
16735;SDS011;17990;49.548;9.730;2022-08-18T14:18:25;5.53;;;4.78;;
16735;SDS011;17990;49.548;9.730;2022-08-18T14:20:53;5.85;;;4.68;;
16735;SDS011;17990;49.548;9.730;2022-08-18T14:23:39;5.75;;;4.40;;
16735;SDS011;17990;49.548;9.730;2022-08-18T14:26:23;5.97;;;5.18;;
16735;SDS011;17990;49.548;9.730;2022-08-18T14:29:07;5.15;;;4.72;;
16735;SDS011;17990;49.548;9.730;2022-08-18T14:31:34;6.65;;;4.50;;
16735;SDS011;17990;49.548;9.730;2022-08-18T14:34:01;4.75;;;4.20;;
16735;SDS011;17990;49.548;9.730;2022-08-18T14:36:28;6.90;;;4.50;;
16735;SDS011;17990;49.548;9.730;2022-08-18T14:38:56;5.18;;;4.68;;
16735;SDS011;17990;49.548;9.730;2022-08-18T14:41:23;4.30;;;3.88;;
16735;SDS011;17990;49.548;9.730;2022-08-18T14:43:50;5.93;;;3.90;;
16735;SDS011;17990;49.548;9.730;2022-08-18T14:46:20;4.57;;;4.15;;
16735;SDS011;17990;49.548;9.730;2022-08-18T14:48:47;7.45;;;4.53;;
16735;SDS011;17990;49.548;9.730;2022-08-18T14:51:14;4.97;;;4.10;;
16735;SDS011;17990;49.548;9.730;2022-08-18T14:53:41;7.38;;;4.78;;
16735;SDS011;17990;49.548;9.730;2022-08-18T14:56:09;6.65;;;4.70;;
16735;SDS011;17990;49.548;9.730;2022-08-18T14:58:37;4.68;;;3.97;;
16735;SDS011;17990;49.548;9.730;2022-08-18T15:01:05;4.10;;;3.70;;
16735;SDS011;17990;49.548;9.730;2022-08-18T15:03:35;4.78;;;4.10;;
16735;SDS011;17990;49.548;9.730;2022-08-18T15:06:03;5.05;;;4.55;;
16735;SDS011;17990;49.548;9.730;2022-08-18T15:08:31;4.82;;;4.30;;
16735;SDS011;17990;49.548;9.730;2022-08-18T15:10:59;4.75;;;4.28;;
16735;SDS011;17990;49.548;9.730;2022-08-18T15:13:28;4.75;;;4.00;;
16735;SDS011;17990;49.548;9.730;2022-08-18T15:15:56;4.88;;;4.47;;
16735;SDS011;17990;49.548;9.730;2022-08-18T15:18:23;7.25;;;3.83;;
16735;SDS011;17990;49.548;9.730;2022-08-18T15:20:50;5.78;;;4.50;;
16735;SDS011;17990;49.548;9.730;2022-08-18T15:23:34;5.15;;;4.28;;
16735;SDS011;17990;49.548;9.730;2022-08-18T15:26:19;5.30;;;4.30;;
16735;SDS011;17990;49.548;9.730;2022-08-18T15:28:50;6.50;;;4.13;;
16735;SDS011;17990;49.548;9.730;2022-08-18T15:31:17;4.70;;;4.10;;
16735;SDS011;17990;49.548;9.730;2022-08-18T15:33:43;5.10;;;4.63;;
16735;SDS011;17990;49.548;9.730;2022-08-18T15:36:10;6.20;;;4.30;;
16735;SDS011;17990;49.548;9.730;2022-08-18T15:38:40;5.00;;;4.50;;
16735;SDS011;17990;49.548;9.730;2022-08-18T15:41:07;5.90;;;4.07;;
16735;SDS011;17990;49.548;9.730;2022-08-18T15:43:34;4.63;;;3.95;;
16735;SDS011;17990;49.548;9.730;2022-08-18T15:46:03;6.03;;;4.10;;
16735;SDS011;17990;49.548;9.730;2022-08-18T15:48:31;4.38;;;4.00;;
16735;SDS011;17990;49.548;9.730;2022-08-18T15:50:58;4.78;;;4.20;;